sensor_id;sensor_type;location;lat;lon;timestamp;P1;durP1;ratioP1;P2;durP2;ratioP2
57659;SDS011;43485;45.680;15.702;2023-07-31T00:00:15;0.10;;;0.10;;
57659;SDS011;43485;45.680;15.702;2023-07-31T00:05:08;0.32;;;0.30;;
57659;SDS011;43485;45.680;15.702;2023-07-31T00:07:53;0.43;;;0.20;;
57659;SDS011;43485;45.680;15.702;2023-07-31T00:10:21;0.10;;;0.10;;
57659;SDS011;43485;45.680;15.702;2023-07-31T00:15:34;0.20;;;0.20;;
57659;SDS011;43485;45.680;15.702;2023-07-31T00:20:26;0.20;;;0.20;;
57659;SDS011;43485;45.680;15.702;2023-07-31T00:22:53;0.20;;;0.20;;
57659;SDS011;43485;45.680;15.702;2023-07-31T00:27:44;0.20;;;0.20;;
57659;SDS011;43485;45.680;15.702;2023-07-31T00:30:11;0.10;;;0.10;;
57659;SDS011;43485;45.680;15.702;2023-07-31T00:32:37;0.38;;;0.38;;
57659;SDS011;43485;45.680;15.702;2023-07-31T00:35:03;0.30;;;0.30;;
57659;SDS011;43485;45.680;15.702;2023-07-31T00:37:30;0.52;;;0.20;;
57659;SDS011;43485;45.680;15.702;2023-07-31T00:40:02;1.75;;;0.82;;
57659;SDS011;43485;45.680;15.702;2023-07-31T00:42:28;0.10;;;0.10;;
57659;SDS011;43485;45.680;15.702;2023-07-31T00:47:23;0.30;;;0.30;;
57659;SDS011;43485;45.680;15.702;2023-07-31T00:49:49;0.10;;;0.10;;
57659;SDS011;43485;45.680;15.702;2023-07-31T00:52:15;0.30;;;0.30;;
57659;SDS011;43485;45.680;15.702;2023-07-31T00:54:42;0.28;;;0.20;;
57659;SDS011;43485;45.680;15.702;2023-07-31T00:57:08;0.15;;;0.15;;
57659;SDS011;43485;45.680;15.702;2023-07-31T00:59:39;0.30;;;0.30;;
57659;SDS011;43485;45.680;15.702;2023-07-31T01:02:05;0.10;;;0.10;;
57659;SDS011;43485;45.680;15.702;2023-07-31T01:04:34;0.20;;;0.20;;
57659;SDS011;43485;45.680;15.702;2023-07-31T01:07:02;0.20;;;0.20;;
57659;SDS011;43485;45.680;15.702;2023-07-31T01:12:56;0.30;;;0.30;;
57659;SDS011;43485;45.680;15.702;2023-07-31T01:15:23;0.10;;;0.10;;
57659;SDS011;43485;45.680;15.702;2023-07-31T01:20:33;0.52;;;0.43;;
57659;SDS011;43485;45.680;15.702;2023-07-31T01:32:19;0.70;;;0.20;;
57659;SDS011;43485;45.680;15.702;2023-07-31T01:34:48;0.38;;;0.20;;
57659;SDS011;43485;45.680;15.702;2023-07-31T01:37:15;0.30;;;0.30;;
57659;SDS011;43485;45.680;15.702;2023-07-31T01:42:06;0.10;;;0.10;;
57659;SDS011;43485;45.680;15.702;2023-07-31T01:47:17;0.20;;;0.20;;
57659;SDS011;43485;45.680;15.702;2023-07-31T01:50:03;0.10;;;0.10;;
57659;SDS011;43485;45.680;15.702;2023-07-31T01:52:30;0.80;;;0.25;;
57659;SDS011;43485;45.680;15.702;2023-07-31T01:55:05;0.30;;;0.30;;
57659;SDS011;43485;45.680;15.702;2023-07-31T01:57:31;0.10;;;0.10;;
57659;SDS011;43485;45.680;15.702;2023-07-31T01:59:58;0.43;;;0.40;;
57659;SDS011;43485;45.680;15.702;2023-07-31T02:02:24;0.10;;;0.10;;
57659;SDS011;43485;45.680;15.702;2023-07-31T02:04:53;0.30;;;0.30;;
57659;SDS011;43485;45.680;15.702;2023-07-31T02:09:50;0.10;;;0.10;;
57659;SDS011;43485;45.680;15.702;2023-07-31T02:12:19;0.40;;;0.25;;
57659;SDS011;43485;45.680;15.702;2023-07-31T02:14:49;0.30;;;0.30;;
57659;SDS011;43485;45.680;15.702;2023-07-31T02:17:15;0.13;;;0.10;;
57659;SDS011;43485;45.680;15.702;2023-07-31T02:19:41;0.13;;;0.13;;
57659;SDS011;43485;45.680;15.702;2023-07-31T02:22:29;0.10;;;0.10;;
57659;SDS011;43485;45.680;15.702;2023-07-31T02:27:21;0.43;;;0.20;;
57659;SDS011;43485;45.680;15.702;2023-07-31T02:29:49;0.32;;;0.20;;
57659;SDS011;43485;45.680;15.702;2023-07-31T02:32:25;0.17;;;0.17;;
57659;SDS011;43485;45.680;15.702;2023-07-31T02:34:51;0.32;;;0.30;;
57659;SDS011;43485;45.680;15.702;2023-07-31T02:37:17;0.35;;;0.28;;
57659;SDS011;43485;45.680;15.702;2023-07-31T02:39:43;0.65;;;0.60;;
57659;SDS011;43485;45.680;15.702;2023-07-31T02:42:09;0.13;;;0.13;;
57659;SDS011;43485;45.680;15.702;2023-07-31T02:44:38;0.22;;;0.20;;
57659;SDS011;43485;45.680;15.702;2023-07-31T02:47:07;1.30;;;0.28;;
57659;SDS011;43485;45.680;15.702;2023-07-31T02:49:34;0.10;;;0.10;;
57659;SDS011;43485;45.680;15.702;2023-07-31T02:54:26;0.40;;;0.40;;
57659;SDS011;43485;45.680;15.702;2023-07-31T02:59:21;0.30;;;0.30;;
57659;SDS011;43485;45.680;15.702;2023-07-31T03:04:19;0.20;;;0.20;;
57659;SDS011;43485;45.680;15.702;2023-07-31T03:06:55;0.10;;;0.10;;
57659;SDS011;43485;45.680;15.702;2023-07-31T03:09:24;0.30;;;0.30;;
57659;SDS011;43485;45.680;15.702;2023-07-31T03:11:50;0.63;;;0.40;;
57659;SDS011;43485;45.680;15.702;2023-07-31T03:16:42;0.10;;;0.10;;
57659;SDS011;43485;45.680;15.702;2023-07-31T03:19:11;0.35;;;0.35;;
57659;SDS011;43485;45.680;15.702;2023-07-31T03:21:56;0.50;;;0.50;;
57659;SDS011;43485;45.680;15.702;2023-07-31T03:24:23;0.10;;;0.10;;
57659;SDS011;43485;45.680;15.702;2023-07-31T03:27:28;0.30;;;0.20;;
57659;SDS011;43485;45.680;15.702;2023-07-31T03:32:20;0.20;;;0.20;;
57659;SDS011;43485;45.680;15.702;2023-07-31T03:34:46;0.20;;;0.20;;
57659;SDS011;43485;45.680;15.702;2023-07-31T03:37:12;0.30;;;0.25;;
57659;SDS011;43485;45.680;15.702;2023-07-31T03:42:07;0.17;;;0.17;;
57659;SDS011;43485;45.680;15.702;2023-07-31T03:46:59;0.20;;;0.20;;
57659;SDS011;43485;45.680;15.702;2023-07-31T03:51:51;1.10;;;0.20;;
57659;SDS011;43485;45.680;15.702;2023-07-31T03:54:25;1.23;;;0.40;;
57659;SDS011;43485;45.680;15.702;2023-07-31T03:59:19;0.20;;;0.20;;
57659;SDS011;43485;45.680;15.702;2023-07-31T04:04:11;0.10;;;0.10;;
57659;SDS011;43485;45.680;15.702;2023-07-31T04:06:40;0.10;;;0.10;;
57659;SDS011;43485;45.680;15.702;2023-07-31T04:11:53;0.15;;;0.15;;
57659;SDS011;43485;45.680;15.702;2023-07-31T04:14:22;0.25;;;0.22;;
57659;SDS011;43485;45.680;15.702;2023-07-31T04:16:49;0.28;;;0.28;;
57659;SDS011;43485;45.680;15.702;2023-07-31T04:19:28;0.10;;;0.10;;
57659;SDS011;43485;45.680;15.702;2023-07-31T04:22:16;0.20;;;0.20;;
57659;SDS011;43485;45.680;15.702;2023-07-31T04:27:08;0.73;;;0.63;;
57659;SDS011;43485;45.680;15.702;2023-07-31T04:29:34;0.40;;;0.40;;
57659;SDS011;43485;45.680;15.702;2023-07-31T04:34:26;0.82;;;0.52;;
57659;SDS011;43485;45.680;15.702;2023-07-31T04:39:40;0.13;;;0.13;;
57659;SDS011;43485;45.680;15.702;2023-07-31T04:42:06;0.22;;;0.22;;
57659;SDS011;43485;45.680;15.702;2023-07-31T04:46:58;0.13;;;0.13;;
57659;SDS011;43485;45.680;15.702;2023-07-31T04:49:24;0.20;;;0.20;;
57659;SDS011;43485;45.680;15.702;2023-07-31T04:54:28;0.45;;;0.40;;
57659;SDS011;43485;45.680;15.702;2023-07-31T04:59:20;0.20;;;0.15;;
57659;SDS011;43485;45.680;15.702;2023-07-31T05:04:15;0.55;;;0.35;;
57659;SDS011;43485;45.680;15.702;2023-07-31T05:06:41;0.50;;;0.50;;
57659;SDS011;43485;45.680;15.702;2023-07-31T05:09:07;0.73;;;0.73;;
57659;SDS011;43485;45.680;15.702;2023-07-31T05:11:37;0.10;;;0.10;;
57659;SDS011;43485;45.680;15.702;2023-07-31T05:14:05;0.63;;;0.47;;
57659;SDS011;43485;45.680;15.702;2023-07-31T05:16:31;0.43;;;0.30;;
57659;SDS011;43485;45.680;15.702;2023-07-31T05:21:43;0.30;;;0.30;;
57659;SDS011;43485;45.680;15.702;2023-07-31T05:24:10;0.10;;;0.10;;
57659;SDS011;43485;45.680;15.702;2023-07-31T05:26:36;0.30;;;0.30;;
57659;SDS011;43485;45.680;15.702;2023-07-31T05:29:03;0.45;;;0.40;;
57659;SDS011;43485;45.680;15.702;2023-07-31T05:31:29;0.20;;;0.20;;
57659;SDS011;43485;45.680;15.702;2023-07-31T05:33:57;0.10;;;0.10;;
57659;SDS011;43485;45.680;15.702;2023-07-31T05:36:23;0.20;;;0.20;;
57659;SDS011;43485;45.680;15.702;2023-07-31T05:41:15;0.20;;;0.20;;
57659;SDS011;43485;45.680;15.702;2023-07-31T05:46:08;3.70;;;1.77;;
57659;SDS011;43485;45.680;15.702;2023-07-31T05:48:35;0.22;;;0.17;;
57659;SDS011;43485;45.680;15.702;2023-07-31T05:51:01;0.30;;;0.30;;
57659;SDS011;43485;45.680;15.702;2023-07-31T05:53:27;3.10;;;0.50;;
57659;SDS011;43485;45.680;15.702;2023-07-31T05:55:53;0.30;;;0.20;;
57659;SDS011;43485;45.680;15.702;2023-07-31T06:00:45;0.20;;;0.20;;
57659;SDS011;43485;45.680;15.702;2023-07-31T06:05:37;0.10;;;0.10;;
57659;SDS011;43485;45.680;15.702;2023-07-31T06:08:06;0.10;;;0.10;;
57659;SDS011;43485;45.680;15.702;2023-07-31T06:10:32;0.20;;;0.20;;
57659;SDS011;43485;45.680;15.702;2023-07-31T06:12:59;1.65;;;0.40;;
57659;SDS011;43485;45.680;15.702;2023-07-31T06:18:00;0.45;;;0.25;;
57659;SDS011;43485;45.680;15.702;2023-07-31T06:20:27;0.20;;;0.20;;
57659;SDS011;43485;45.680;15.702;2023-07-31T06:22:53;0.20;;;0.20;;
57659;SDS011;43485;45.680;15.702;2023-07-31T06:25:20;0.32;;;0.32;;
57659;SDS011;43485;45.680;15.702;2023-07-31T06:27:46;0.50;;;0.50;;
57659;SDS011;43485;45.680;15.702;2023-07-31T06:32:38;0.35;;;0.20;;
57659;SDS011;43485;45.680;15.702;2023-07-31T06:35:06;0.20;;;0.20;;
57659;SDS011;43485;45.680;15.702;2023-07-31T06:37:43;0.45;;;0.30;;
57659;SDS011;43485;45.680;15.702;2023-07-31T06:42:55;0.55;;;0.55;;
57659;SDS011;43485;45.680;15.702;2023-07-31T06:47:49;0.28;;;0.28;;
57659;SDS011;43485;45.680;15.702;2023-07-31T06:50:15;0.28;;;0.20;;
57659;SDS011;43485;45.680;15.702;2023-07-31T06:52:41;0.10;;;0.10;;
57659;SDS011;43485;45.680;15.702;2023-07-31T06:57:53;0.20;;;0.20;;
57659;SDS011;43485;45.680;15.702;2023-07-31T07:00:22;0.85;;;0.50;;
57659;SDS011;43485;45.680;15.702;2023-07-31T07:02:49;0.65;;;0.50;;
57659;SDS011;43485;45.680;15.702;2023-07-31T07:05:41;0.35;;;0.32;;
57659;SDS011;43485;45.680;15.702;2023-07-31T07:08:07;0.40;;;0.35;;
57659;SDS011;43485;45.680;15.702;2023-07-31T07:10:36;0.43;;;0.22;;
57659;SDS011;43485;45.680;15.702;2023-07-31T07:13:02;0.20;;;0.20;;
57659;SDS011;43485;45.680;15.702;2023-07-31T07:15:29;0.20;;;0.20;;
57659;SDS011;43485;45.680;15.702;2023-07-31T07:17:55;0.43;;;0.20;;
57659;SDS011;43485;45.680;15.702;2023-07-31T07:20:21;0.28;;;0.20;;
57659;SDS011;43485;45.680;15.702;2023-07-31T07:22:47;0.20;;;0.20;;
57659;SDS011;43485;45.680;15.702;2023-07-31T07:25:13;0.20;;;0.20;;
57659;SDS011;43485;45.680;15.702;2023-07-31T07:27:42;0.15;;;0.15;;
57659;SDS011;43485;45.680;15.702;2023-07-31T07:30:08;0.30;;;0.30;;
57659;SDS011;43485;45.680;15.702;2023-07-31T07:32:34;0.55;;;0.55;;
57659;SDS011;43485;45.680;15.702;2023-07-31T07:35:11;1.90;;;0.20;;
57659;SDS011;43485;45.680;15.702;2023-07-31T07:40:23;0.40;;;0.30;;
57659;SDS011;43485;45.680;15.702;2023-07-31T07:42:50;0.10;;;0.10;;
57659;SDS011;43485;45.680;15.702;2023-07-31T07:45:25;0.60;;;0.28;;
57659;SDS011;43485;45.680;15.702;2023-07-31T07:47:51;0.47;;;0.47;;
57659;SDS011;43485;45.680;15.702;2023-07-31T07:50:24;0.30;;;0.30;;
57659;SDS011;43485;45.680;15.702;2023-07-31T07:52:51;0.30;;;0.30;;
57659;SDS011;43485;45.680;15.702;2023-07-31T07:55:37;0.10;;;0.10;;
57659;SDS011;43485;45.680;15.702;2023-07-31T07:58:03;0.45;;;0.40;;
57659;SDS011;43485;45.680;15.702;2023-07-31T08:00:29;0.35;;;0.20;;
57659;SDS011;43485;45.680;15.702;2023-07-31T08:02:55;0.50;;;0.43;;
57659;SDS011;43485;45.680;15.702;2023-07-31T08:05:23;0.20;;;0.20;;
57659;SDS011;43485;45.680;15.702;2023-07-31T08:10:47;0.20;;;0.20;;
57659;SDS011;43485;45.680;15.702;2023-07-31T08:13:13;0.20;;;0.20;;
57659;SDS011;43485;45.680;15.702;2023-07-31T08:15:42;0.20;;;0.20;;
57659;SDS011;43485;45.680;15.702;2023-07-31T08:18:09;0.32;;;0.30;;
57659;SDS011;43485;45.680;15.702;2023-07-31T08:20:53;0.30;;;0.30;;
57659;SDS011;43485;45.680;15.702;2023-07-31T08:23:19;1.20;;;0.82;;
57659;SDS011;43485;45.680;15.702;2023-07-31T08:26:06;0.45;;;0.38;;
57659;SDS011;43485;45.680;15.702;2023-07-31T08:28:32;0.43;;;0.30;;
57659;SDS011;43485;45.680;15.702;2023-07-31T08:31:18;0.28;;;0.28;;
57659;SDS011;43485;45.680;15.702;2023-07-31T08:33:44;0.35;;;0.25;;
57659;SDS011;43485;45.680;15.702;2023-07-31T08:36:13;0.35;;;0.35;;
57659;SDS011;43485;45.680;15.702;2023-07-31T08:38:39;0.82;;;0.70;;
57659;SDS011;43485;45.680;15.702;2023-07-31T08:41:05;0.28;;;0.28;;
57659;SDS011;43485;45.680;15.702;2023-07-31T08:43:31;0.40;;;0.40;;
57659;SDS011;43485;45.680;15.702;2023-07-31T08:45:58;0.20;;;0.20;;
57659;SDS011;43485;45.680;15.702;2023-07-31T08:48:31;2.03;;;0.40;;
57659;SDS011;43485;45.680;15.702;2023-07-31T08:51:00;0.52;;;0.45;;
57659;SDS011;43485;45.680;15.702;2023-07-31T08:53:42;0.95;;;0.73;;
57659;SDS011;43485;45.680;15.702;2023-07-31T08:56:23;0.20;;;0.20;;
57659;SDS011;43485;45.680;15.702;2023-07-31T08:58:51;0.38;;;0.38;;
57659;SDS011;43485;45.680;15.702;2023-07-31T09:01:19;1.55;;;0.90;;
57659;SDS011;43485;45.680;15.702;2023-07-31T09:03:46;0.85;;;0.35;;
57659;SDS011;43485;45.680;15.702;2023-07-31T09:06:15;0.40;;;0.40;;
57659;SDS011;43485;45.680;15.702;2023-07-31T09:08:45;0.60;;;0.60;;
57659;SDS011;43485;45.680;15.702;2023-07-31T09:11:26;0.40;;;0.40;;
57659;SDS011;43485;45.680;15.702;2023-07-31T09:13:54;0.40;;;0.40;;
57659;SDS011;43485;45.680;15.702;2023-07-31T09:19:46;1.25;;;1.00;;
57659;SDS011;43485;45.680;15.702;2023-07-31T09:22:12;0.47;;;0.47;;
57659;SDS011;43485;45.680;15.702;2023-07-31T09:24:39;0.60;;;0.60;;
57659;SDS011;43485;45.680;15.702;2023-07-31T09:27:05;0.55;;;0.55;;
57659;SDS011;43485;45.680;15.702;2023-07-31T09:29:31;0.60;;;0.60;;
57659;SDS011;43485;45.680;15.702;2023-07-31T09:31:57;0.60;;;0.60;;
57659;SDS011;43485;45.680;15.702;2023-07-31T09:37:08;0.77;;;0.77;;
57659;SDS011;43485;45.680;15.702;2023-07-31T09:39:56;0.68;;;0.68;;
57659;SDS011;43485;45.680;15.702;2023-07-31T09:42:31;0.65;;;0.65;;
57659;SDS011;43485;45.680;15.702;2023-07-31T09:47:48;0.80;;;0.80;;
57659;SDS011;43485;45.680;15.702;2023-07-31T09:50:14;0.70;;;0.70;;
57659;SDS011;43485;45.680;15.702;2023-07-31T09:52:42;1.02;;;0.90;;
57659;SDS011;43485;45.680;15.702;2023-07-31T09:55:08;0.73;;;0.73;;
57659;SDS011;43485;45.680;15.702;2023-07-31T10:00:21;0.77;;;0.77;;
57659;SDS011;43485;45.680;15.702;2023-07-31T10:02:50;1.08;;;0.98;;
57659;SDS011;43485;45.680;15.702;2023-07-31T10:05:17;0.85;;;0.85;;
57659;SDS011;43485;45.680;15.702;2023-07-31T10:10:34;0.82;;;0.82;;
57659;SDS011;43485;45.680;15.702;2023-07-31T10:13:19;1.45;;;0.90;;
57659;SDS011;43485;45.680;15.702;2023-07-31T10:15:47;0.70;;;0.70;;
57659;SDS011;43485;45.680;15.702;2023-07-31T10:18:26;1.05;;;1.00;;
57659;SDS011;43485;45.680;15.702;2023-07-31T10:21:02;1.48;;;1.38;;
57659;SDS011;43485;45.680;15.702;2023-07-31T10:23:32;1.17;;;1.08;;
57659;SDS011;43485;45.680;15.702;2023-07-31T10:26:05;1.38;;;1.10;;
57659;SDS011;43485;45.680;15.702;2023-07-31T10:28:33;1.00;;;0.95;;
57659;SDS011;43485;45.680;15.702;2023-07-31T10:33:51;1.27;;;1.17;;
57659;SDS011;43485;45.680;15.702;2023-07-31T10:36:24;1.20;;;1.10;;
57659;SDS011;43485;45.680;15.702;2023-07-31T10:38:50;2.10;;;1.90;;
57659;SDS011;43485;45.680;15.702;2023-07-31T10:41:19;1.42;;;1.33;;
57659;SDS011;43485;45.680;15.702;2023-07-31T10:46:54;1.50;;;1.40;;
57659;SDS011;43485;45.680;15.702;2023-07-31T10:49:20;1.40;;;1.30;;
57659;SDS011;43485;45.680;15.702;2023-07-31T10:51:47;1.40;;;1.30;;
57659;SDS011;43485;45.680;15.702;2023-07-31T10:54:14;2.38;;;1.90;;
57659;SDS011;43485;45.680;15.702;2023-07-31T10:59:44;2.35;;;1.95;;
57659;SDS011;43485;45.680;15.702;2023-07-31T11:02:23;1.52;;;1.42;;
57659;SDS011;43485;45.680;15.702;2023-07-31T11:10:25;2.10;;;1.67;;
57659;SDS011;43485;45.680;15.702;2023-07-31T11:12:51;1.10;;;1.00;;
57659;SDS011;43485;45.680;15.702;2023-07-31T11:15:18;1.20;;;1.10;;
57659;SDS011;43485;45.680;15.702;2023-07-31T11:17:44;1.58;;;1.35;;
57659;SDS011;43485;45.680;15.702;2023-07-31T11:20:10;1.10;;;1.00;;
57659;SDS011;43485;45.680;15.702;2023-07-31T11:22:36;0.95;;;0.90;;
57659;SDS011;43485;45.680;15.702;2023-07-31T11:25:03;1.33;;;1.23;;
57659;SDS011;43485;45.680;15.702;2023-07-31T11:27:29;1.38;;;1.08;;
57659;SDS011;43485;45.680;15.702;2023-07-31T11:32:40;0.90;;;0.90;;
57659;SDS011;43485;45.680;15.702;2023-07-31T11:35:06;0.98;;;0.90;;
57659;SDS011;43485;45.680;15.702;2023-07-31T11:40:24;1.23;;;0.98;;
57659;SDS011;43485;45.680;15.702;2023-07-31T11:43:04;0.80;;;0.80;;
57659;SDS011;43485;45.680;15.702;2023-07-31T11:45:32;0.70;;;0.70;;
57659;SDS011;43485;45.680;15.702;2023-07-31T11:51:06;1.00;;;1.00;;
57659;SDS011;43485;45.680;15.702;2023-07-31T11:56:23;0.65;;;0.65;;
57659;SDS011;43485;45.680;15.702;2023-07-31T11:58:51;0.57;;;0.57;;
57659;SDS011;43485;45.680;15.702;2023-07-31T12:01:31;1.27;;;1.13;;
57659;SDS011;43485;45.680;15.702;2023-07-31T12:03:57;1.02;;;0.90;;
57659;SDS011;43485;45.680;15.702;2023-07-31T12:09:09;0.63;;;0.63;;
57659;SDS011;43485;45.680;15.702;2023-07-31T12:11:45;1.35;;;0.98;;
57659;SDS011;43485;45.680;15.702;2023-07-31T12:14:19;1.00;;;0.90;;
57659;SDS011;43485;45.680;15.702;2023-07-31T12:19:19;0.65;;;0.65;;
57659;SDS011;43485;45.680;15.702;2023-07-31T12:21:45;0.50;;;0.50;;
57659;SDS011;43485;45.680;15.702;2023-07-31T12:24:11;0.60;;;0.60;;
57659;SDS011;43485;45.680;15.702;2023-07-31T12:26:37;0.75;;;0.73;;
57659;SDS011;43485;45.680;15.702;2023-07-31T12:29:19;0.50;;;0.50;;
57659;SDS011;43485;45.680;15.702;2023-07-31T12:31:45;0.80;;;0.80;;
57659;SDS011;43485;45.680;15.702;2023-07-31T12:36:55;1.27;;;1.05;;
57659;SDS011;43485;45.680;15.702;2023-07-31T12:39:21;0.90;;;0.90;;
57659;SDS011;43485;45.680;15.702;2023-07-31T12:42:09;0.60;;;0.60;;
57659;SDS011;43485;45.680;15.702;2023-07-31T12:44:35;1.15;;;1.05;;
57659;SDS011;43485;45.680;15.702;2023-07-31T12:47:16;0.70;;;0.70;;
57659;SDS011;43485;45.680;15.702;2023-07-31T12:49:42;0.80;;;0.80;;
57659;SDS011;43485;45.680;15.702;2023-07-31T12:52:08;1.08;;;1.00;;
57659;SDS011;43485;45.680;15.702;2023-07-31T12:54:34;1.45;;;1.20;;
57659;SDS011;43485;45.680;15.702;2023-07-31T12:57:00;1.02;;;0.95;;
57659;SDS011;43485;45.680;15.702;2023-07-31T12:59:26;0.90;;;0.90;;
57659;SDS011;43485;45.680;15.702;2023-07-31T13:01:52;0.90;;;0.90;;
57659;SDS011;43485;45.680;15.702;2023-07-31T13:04:18;0.80;;;0.80;;
57659;SDS011;43485;45.680;15.702;2023-07-31T13:06:44;1.00;;;0.90;;
57659;SDS011;43485;45.680;15.702;2023-07-31T13:09:18;0.60;;;0.60;;
57659;SDS011;43485;45.680;15.702;2023-07-31T13:14:37;0.75;;;0.75;;
57659;SDS011;43485;45.680;15.702;2023-07-31T13:17:04;0.85;;;0.70;;
57659;SDS011;43485;45.680;15.702;2023-07-31T13:19:30;2.40;;;0.98;;
57659;SDS011;43485;45.680;15.702;2023-07-31T13:21:56;0.88;;;0.88;;
57659;SDS011;43485;45.680;15.702;2023-07-31T13:24:25;0.85;;;0.80;;
57659;SDS011;43485;45.680;15.702;2023-07-31T13:26:51;1.25;;;0.77;;
57659;SDS011;43485;45.680;15.702;2023-07-31T13:29:41;0.82;;;0.82;;
57659;SDS011;43485;45.680;15.702;2023-07-31T13:32:07;1.10;;;1.00;;
57659;SDS011;43485;45.680;15.702;2023-07-31T13:34:33;1.05;;;0.98;;
57659;SDS011;43485;45.680;15.702;2023-07-31T13:36:59;1.20;;;1.10;;
57659;SDS011;43485;45.680;15.702;2023-07-31T13:39:45;1.10;;;1.00;;
57659;SDS011;43485;45.680;15.702;2023-07-31T13:42:11;1.70;;;1.33;;
57659;SDS011;43485;45.680;15.702;2023-07-31T13:44:38;1.30;;;1.20;;
57659;SDS011;43485;45.680;15.702;2023-07-31T13:47:05;1.48;;;1.38;;
57659;SDS011;43485;45.680;15.702;2023-07-31T13:49:32;1.25;;;1.15;;
57659;SDS011;43485;45.680;15.702;2023-07-31T13:51:58;1.88;;;1.50;;
57659;SDS011;43485;45.680;15.702;2023-07-31T13:54:24;1.33;;;1.23;;
57659;SDS011;43485;45.680;15.702;2023-07-31T13:57:08;1.67;;;1.45;;
57659;SDS011;43485;45.680;15.702;2023-07-31T13:59:34;1.75;;;1.65;;
57659;SDS011;43485;45.680;15.702;2023-07-31T14:02:02;1.80;;;1.63;;
57659;SDS011;43485;45.680;15.702;2023-07-31T14:04:29;4.07;;;2.00;;
57659;SDS011;43485;45.680;15.702;2023-07-31T14:07:15;1.63;;;1.52;;
57659;SDS011;43485;45.680;15.702;2023-07-31T14:09:43;2.45;;;1.90;;
57659;SDS011;43485;45.680;15.702;2023-07-31T14:12:09;1.60;;;1.50;;
57659;SDS011;43485;45.680;15.702;2023-07-31T14:14:41;1.63;;;1.52;;
57659;SDS011;43485;45.680;15.702;2023-07-31T14:17:08;2.05;;;1.85;;
57659;SDS011;43485;45.680;15.702;2023-07-31T14:19:34;2.30;;;1.95;;
57659;SDS011;43485;45.680;15.702;2023-07-31T14:22:05;1.80;;;1.67;;
57659;SDS011;43485;45.680;15.702;2023-07-31T14:24:34;1.65;;;1.55;;
57659;SDS011;43485;45.680;15.702;2023-07-31T14:30:02;1.83;;;1.60;;
57659;SDS011;43485;45.680;15.702;2023-07-31T14:32:31;1.27;;;1.17;;
57659;SDS011;43485;45.680;15.702;2023-07-31T14:34:58;0.98;;;0.98;;
57659;SDS011;43485;45.680;15.702;2023-07-31T14:37:25;1.88;;;1.63;;
57659;SDS011;43485;45.680;15.702;2023-07-31T14:39:52;1.10;;;0.98;;
57659;SDS011;43485;45.680;15.702;2023-07-31T14:42:18;1.25;;;1.02;;
57659;SDS011;43485;45.680;15.702;2023-07-31T14:44:47;0.80;;;0.80;;
57659;SDS011;43485;45.680;15.702;2023-07-31T14:47:13;0.90;;;0.85;;
57659;SDS011;43485;45.680;15.702;2023-07-31T14:50:00;0.85;;;0.82;;
57659;SDS011;43485;45.680;15.702;2023-07-31T14:52:26;0.70;;;0.70;;
57659;SDS011;43485;45.680;15.702;2023-07-31T14:55:10;0.70;;;0.70;;
57659;SDS011;43485;45.680;15.702;2023-07-31T14:57:37;0.80;;;0.60;;
57659;SDS011;43485;45.680;15.702;2023-07-31T15:00:12;0.55;;;0.52;;
57659;SDS011;43485;45.680;15.702;2023-07-31T15:02:38;0.50;;;0.50;;
57659;SDS011;43485;45.680;15.702;2023-07-31T15:05:08;0.77;;;0.50;;
57659;SDS011;43485;45.680;15.702;2023-07-31T15:07:34;0.55;;;0.50;;
57659;SDS011;43485;45.680;15.702;2023-07-31T15:10:59;0.65;;;0.60;;
57659;SDS011;43485;45.680;15.702;2023-07-31T15:13:25;0.52;;;0.52;;
57659;SDS011;43485;45.680;15.702;2023-07-31T15:15:53;0.40;;;0.40;;
57659;SDS011;43485;45.680;15.702;2023-07-31T15:18:28;1.23;;;1.10;;
57659;SDS011;43485;45.680;15.702;2023-07-31T15:20:54;0.73;;;0.70;;
57659;SDS011;43485;45.680;15.702;2023-07-31T15:23:20;0.40;;;0.40;;
57659;SDS011;43485;45.680;15.702;2023-07-31T15:25:51;0.73;;;0.73;;
57659;SDS011;43485;45.680;15.702;2023-07-31T15:28:22;0.75;;;0.55;;
57659;SDS011;43485;45.680;15.702;2023-07-31T15:30:48;1.02;;;0.73;;
57659;SDS011;43485;45.680;15.702;2023-07-31T15:33:14;0.60;;;0.40;;
57659;SDS011;43485;45.680;15.702;2023-07-31T15:35:43;0.77;;;0.52;;
57659;SDS011;43485;45.680;15.702;2023-07-31T15:38:09;0.30;;;0.30;;
57659;SDS011;43485;45.680;15.702;2023-07-31T15:40:35;0.95;;;0.82;;
57659;SDS011;43485;45.680;15.702;2023-07-31T15:43:01;0.82;;;0.32;;
57659;SDS011;43485;45.680;15.702;2023-07-31T15:45:27;0.77;;;0.40;;
57659;SDS011;43485;45.680;15.702;2023-07-31T15:48:07;0.73;;;0.65;;
57659;SDS011;43485;45.680;15.702;2023-07-31T15:50:35;0.30;;;0.30;;
57659;SDS011;43485;45.680;15.702;2023-07-31T15:53:02;0.50;;;0.50;;
57659;SDS011;43485;45.680;15.702;2023-07-31T15:55:30;0.40;;;0.40;;
57659;SDS011;43485;45.680;15.702;2023-07-31T15:57:56;0.30;;;0.30;;
57659;SDS011;43485;45.680;15.702;2023-07-31T16:00:24;0.40;;;0.40;;
57659;SDS011;43485;45.680;15.702;2023-07-31T16:02:58;1.65;;;0.60;;
57659;SDS011;43485;45.680;15.702;2023-07-31T16:05:27;0.30;;;0.30;;
57659;SDS011;43485;45.680;15.702;2023-07-31T16:08:07;0.40;;;0.40;;
57659;SDS011;43485;45.680;15.702;2023-07-31T16:10:33;0.43;;;0.43;;
57659;SDS011;43485;45.680;15.702;2023-07-31T16:13:02;0.32;;;0.32;;
57659;SDS011;43485;45.680;15.702;2023-07-31T16:15:28;0.20;;;0.20;;
57659;SDS011;43485;45.680;15.702;2023-07-31T16:18:18;1.20;;;0.80;;
57659;SDS011;43485;45.680;15.702;2023-07-31T16:20:53;0.28;;;0.28;;
57659;SDS011;43485;45.680;15.702;2023-07-31T16:23:22;0.40;;;0.40;;
57659;SDS011;43485;45.680;15.702;2023-07-31T16:25:48;0.70;;;0.70;;
57659;SDS011;43485;45.680;15.702;2023-07-31T16:28:15;0.30;;;0.30;;
57659;SDS011;43485;45.680;15.702;2023-07-31T16:30:41;1.17;;;0.55;;
57659;SDS011;43485;45.680;15.702;2023-07-31T16:33:09;0.60;;;0.55;;
57659;SDS011;43485;45.680;15.702;2023-07-31T16:35:58;0.60;;;0.60;;
57659;SDS011;43485;45.680;15.702;2023-07-31T16:38:24;1.23;;;0.70;;
57659;SDS011;43485;45.680;15.702;2023-07-31T16:40:50;0.30;;;0.30;;
57659;SDS011;43485;45.680;15.702;2023-07-31T16:43:16;0.73;;;0.73;;
57659;SDS011;43485;45.680;15.702;2023-07-31T16:45:51;0.28;;;0.28;;
57659;SDS011;43485;45.680;15.702;2023-07-31T16:48:17;0.57;;;0.38;;
57659;SDS011;43485;45.680;15.702;2023-07-31T16:50:43;0.68;;;0.68;;
57659;SDS011;43485;45.680;15.702;2023-07-31T16:53:09;0.85;;;0.70;;
57659;SDS011;43485;45.680;15.702;2023-07-31T16:55:38;0.73;;;0.50;;
57659;SDS011;43485;45.680;15.702;2023-07-31T16:58:04;0.75;;;0.40;;
57659;SDS011;43485;45.680;15.702;2023-07-31T17:01:06;0.30;;;0.30;;
57659;SDS011;43485;45.680;15.702;2023-07-31T17:03:19;0.52;;;0.52;;
57659;SDS011;43485;45.680;15.702;2023-07-31T17:05:45;0.30;;;0.30;;
57659;SDS011;43485;45.680;15.702;2023-07-31T17:08:30;0.63;;;0.60;;
57659;SDS011;43485;45.680;15.702;2023-07-31T17:11:11;0.50;;;0.50;;
57659;SDS011;43485;45.680;15.702;2023-07-31T17:13:37;4.75;;;0.63;;
57659;SDS011;43485;45.680;15.702;2023-07-31T17:16:03;0.40;;;0.40;;
57659;SDS011;43485;45.680;15.702;2023-07-31T17:18:29;0.50;;;0.50;;
57659;SDS011;43485;45.680;15.702;2023-07-31T17:20:55;0.68;;;0.50;;
57659;SDS011;43485;45.680;15.702;2023-07-31T17:23:21;0.50;;;0.50;;
57659;SDS011;43485;45.680;15.702;2023-07-31T17:26:03;0.32;;;0.32;;
57659;SDS011;43485;45.680;15.702;2023-07-31T17:28:30;1.00;;;0.90;;
57659;SDS011;43485;45.680;15.702;2023-07-31T17:30:57;0.20;;;0.20;;
57659;SDS011;43485;45.680;15.702;2023-07-31T17:33:24;0.30;;;0.30;;